Terminal Aerodrome Forecast
Issued by NWS Quad Cities IA IL

Home | Current Version | Previous Version | Text Only | Print | Product List | Glossary On
Versions: 1 2 3 4 5 6 7 8 9 10 11 12 13 14 15 16 17 18 19 20 21 22 23 24 25 26
000
FTUS43 KDVN 220536
TAFDBQ
TAF
KDBQ 220536Z 2206/2306 05011KT 1/4SM -DZ FG VV001
     FM220700 04012KT 1SM -RA BR OVC002
     FM221500 09013KT 2SM BR VCSH OVC006
     FM221800 15007KT P6SM SCT008 BKN020
     FM230000 VRB03KT 4SM -RA BR OVC012
     FM230200 36006KT 4SM -RASN OVC006
     FM230400 34013KT 2SM -SN OVC006=

USA.gov is the U.S. government's official web portal to all federal, state and local government web resources and services.